sensor_id;sensor_type;location;lat;lon;timestamp;P1;durP1;ratioP1;P2;durP2;ratioP2
74851;SDS011;63400;50.650;6.832;2023-05-14T01:24:12;22.48;;;7.10;;
74851;SDS011;63400;50.650;6.832;2023-05-14T01:48:47;21.60;;;7.13;;
74851;SDS011;63400;50.650;6.832;2023-05-14T02:05:47;22.67;;;7.22;;
74851;SDS011;63400;50.650;6.832;2023-05-14T02:29:43;18.77;;;6.70;;
74851;SDS011;63400;50.650;6.832;2023-05-14T03:00:21;21.75;;;7.45;;
74851;SDS011;63400;50.650;6.832;2023-05-14T03:31:11;26.98;;;8.65;;
74851;SDS011;63400;50.650;6.832;2023-05-14T04:21:52;25.92;;;8.70;;
74851;SDS011;63400;50.650;6.832;2023-05-14T04:25:15;27.13;;;9.55;;
74851;SDS011;63400;50.650;6.832;2023-05-14T04:55:50;21.38;;;7.40;;
74851;SDS011;63400;50.650;6.832;2023-05-14T04:59:13;20.42;;;7.32;;
74851;SDS011;63400;50.650;6.832;2023-05-14T06:03:06;22.63;;;10.02;;
74851;SDS011;63400;50.650;6.832;2023-05-14T09:17:57;9.55;;;6.22;;
74851;SDS011;63400;50.650;6.832;2023-05-14T09:20:23;7.57;;;4.65;;
74851;SDS011;63400;50.650;6.832;2023-05-14T09:22:51;9.13;;;4.88;;
74851;SDS011;63400;50.650;6.832;2023-05-14T09:25:17;7.28;;;3.70;;
74851;SDS011;63400;50.650;6.832;2023-05-14T09:27:44;8.50;;;4.30;;
74851;SDS011;63400;50.650;6.832;2023-05-14T09:30:14;6.72;;;3.30;;
74851;SDS011;63400;50.650;6.832;2023-05-14T09:32:42;7.95;;;4.00;;
74851;SDS011;63400;50.650;6.832;2023-05-14T09:35:12;9.45;;;4.30;;
74851;SDS011;63400;50.650;6.832;2023-05-14T09:37:48;8.65;;;4.18;;
74851;SDS011;63400;50.650;6.832;2023-05-14T09:40:15;9.40;;;3.95;;
74851;SDS011;63400;50.650;6.832;2023-05-14T09:42:41;7.35;;;3.70;;
74851;SDS011;63400;50.650;6.832;2023-05-14T09:45:07;7.20;;;3.88;;
74851;SDS011;63400;50.650;6.832;2023-05-14T09:47:33;8.48;;;4.70;;
74851;SDS011;63400;50.650;6.832;2023-05-14T09:49:59;7.88;;;4.22;;
74851;SDS011;63400;50.650;6.832;2023-05-14T09:52:25;6.47;;;2.47;;
74851;SDS011;63400;50.650;6.832;2023-05-14T09:54:53;7.45;;;2.80;;
74851;SDS011;63400;50.650;6.832;2023-05-14T09:57:19;5.68;;;2.70;;
74851;SDS011;63400;50.650;6.832;2023-05-14T09:59:44;5.95;;;2.45;;
74851;SDS011;63400;50.650;6.832;2023-05-14T10:02:13;8.80;;;3.55;;
74851;SDS011;63400;50.650;6.832;2023-05-14T10:04:41;7.00;;;3.65;;
74851;SDS011;63400;50.650;6.832;2023-05-14T10:07:07;6.50;;;3.00;;
74851;SDS011;63400;50.650;6.832;2023-05-14T10:11:58;7.57;;;2.73;;
74851;SDS011;63400;50.650;6.832;2023-05-14T10:16:56;6.80;;;2.67;;
74851;SDS011;63400;50.650;6.832;2023-05-14T10:19:23;8.35;;;2.70;;
74851;SDS011;63400;50.650;6.832;2023-05-14T10:21:56;9.93;;;2.90;;
74851;SDS011;63400;50.650;6.832;2023-05-14T10:24:28;6.55;;;2.45;;
74851;SDS011;63400;50.650;6.832;2023-05-14T10:29:20;8.75;;;2.42;;
74851;SDS011;63400;50.650;6.832;2023-05-14T10:31:56;5.82;;;1.67;;
74851;SDS011;63400;50.650;6.832;2023-05-14T10:42:11;7.00;;;2.63;;
74851;SDS011;63400;50.650;6.832;2023-05-14T10:44:41;9.68;;;3.05;;
74851;SDS011;63400;50.650;6.832;2023-05-14T10:47:10;7.05;;;2.80;;
74851;SDS011;63400;50.650;6.832;2023-05-14T10:49:35;7.55;;;3.13;;
74851;SDS011;63400;50.650;6.832;2023-05-14T10:52:01;9.18;;;3.20;;
74851;SDS011;63400;50.650;6.832;2023-05-14T10:54:26;8.13;;;3.58;;
74851;SDS011;63400;50.650;6.832;2023-05-14T10:56:52;7.47;;;3.22;;
74851;SDS011;63400;50.650;6.832;2023-05-14T10:59:18;10.93;;;3.63;;
74851;SDS011;63400;50.650;6.832;2023-05-14T11:01:43;9.50;;;3.85;;
74851;SDS011;63400;50.650;6.832;2023-05-14T11:04:16;10.40;;;3.97;;
74851;SDS011;63400;50.650;6.832;2023-05-14T11:06:43;10.70;;;4.43;;
74851;SDS011;63400;50.650;6.832;2023-05-14T11:09:09;7.30;;;3.33;;
74851;SDS011;63400;50.650;6.832;2023-05-14T11:11:39;11.60;;;4.40;;
74851;SDS011;63400;50.650;6.832;2023-05-14T11:14:05;10.95;;;4.60;;
74851;SDS011;63400;50.650;6.832;2023-05-14T11:16:30;10.90;;;4.28;;
74851;SDS011;63400;50.650;6.832;2023-05-14T11:19:00;9.18;;;3.85;;
74851;SDS011;63400;50.650;6.832;2023-05-14T11:21:29;10.35;;;4.55;;
74851;SDS011;63400;50.650;6.832;2023-05-14T11:24:00;9.45;;;4.45;;
74851;SDS011;63400;50.650;6.832;2023-05-14T11:26:27;11.15;;;4.65;;
74851;SDS011;63400;50.650;6.832;2023-05-14T11:28:53;12.68;;;5.38;;
74851;SDS011;63400;50.650;6.832;2023-05-14T11:31:18;10.13;;;4.93;;
74851;SDS011;63400;50.650;6.832;2023-05-14T11:33:45;10.10;;;4.57;;
74851;SDS011;63400;50.650;6.832;2023-05-14T11:36:10;11.07;;;5.15;;
74851;SDS011;63400;50.650;6.832;2023-05-14T11:38:44;13.20;;;4.93;;
74851;SDS011;63400;50.650;6.832;2023-05-14T11:41:15;9.38;;;4.50;;
74851;SDS011;63400;50.650;6.832;2023-05-14T11:43:40;8.45;;;4.25;;
74851;SDS011;63400;50.650;6.832;2023-05-14T11:46:06;11.85;;;5.00;;
74851;SDS011;63400;50.650;6.832;2023-05-14T11:48:31;9.77;;;4.75;;
74851;SDS011;63400;50.650;6.832;2023-05-14T11:50:57;11.15;;;5.20;;
74851;SDS011;63400;50.650;6.832;2023-05-14T11:53:27;8.20;;;4.55;;
74851;SDS011;63400;50.650;6.832;2023-05-14T11:55:53;9.90;;;4.53;;
74851;SDS011;63400;50.650;6.832;2023-05-14T11:58:19;9.60;;;4.72;;
74851;SDS011;63400;50.650;6.832;2023-05-14T12:00:50;8.43;;;4.43;;
74851;SDS011;63400;50.650;6.832;2023-05-14T12:03:19;8.80;;;4.93;;
74851;SDS011;63400;50.650;6.832;2023-05-14T12:05:59;9.52;;;5.03;;
74851;SDS011;63400;50.650;6.832;2023-05-14T12:08:26;13.70;;;5.53;;
74851;SDS011;63400;50.650;6.832;2023-05-14T12:13:18;12.02;;;5.60;;
74851;SDS011;63400;50.650;6.832;2023-05-14T12:15:47;12.52;;;5.35;;
74851;SDS011;63400;50.650;6.832;2023-05-14T12:18:18;12.02;;;6.20;;
74851;SDS011;63400;50.650;6.832;2023-05-14T12:20:47;9.25;;;5.50;;
74851;SDS011;63400;50.650;6.832;2023-05-14T12:23:12;12.38;;;6.60;;
74851;SDS011;63400;50.650;6.832;2023-05-14T12:25:38;17.45;;;9.60;;
74851;SDS011;63400;50.650;6.832;2023-05-14T12:28:13;16.05;;;9.00;;
74851;SDS011;63400;50.650;6.832;2023-05-14T12:30:39;17.42;;;8.68;;
74851;SDS011;63400;50.650;6.832;2023-05-14T12:33:05;14.98;;;8.38;;
74851;SDS011;63400;50.650;6.832;2023-05-14T12:35:31;16.05;;;7.97;;
74851;SDS011;63400;50.650;6.832;2023-05-14T12:37:56;18.60;;;9.02;;
74851;SDS011;63400;50.650;6.832;2023-05-14T12:40:22;14.88;;;7.93;;
74851;SDS011;63400;50.650;6.832;2023-05-14T12:42:47;16.52;;;8.77;;
74851;SDS011;63400;50.650;6.832;2023-05-14T12:45:12;18.65;;;9.10;;
74851;SDS011;63400;50.650;6.832;2023-05-14T12:47:38;17.23;;;10.13;;
74851;SDS011;63400;50.650;6.832;2023-05-14T12:50:03;15.10;;;9.02;;
74851;SDS011;63400;50.650;6.832;2023-05-14T12:52:29;15.00;;;9.43;;
74851;SDS011;63400;50.650;6.832;2023-05-14T12:54:55;15.90;;;9.85;;
74851;SDS011;63400;50.650;6.832;2023-05-14T12:57:20;16.98;;;10.35;;
74851;SDS011;63400;50.650;6.832;2023-05-14T12:59:46;18.27;;;10.95;;
74851;SDS011;63400;50.650;6.832;2023-05-14T13:02:11;16.88;;;10.27;;
74851;SDS011;63400;50.650;6.832;2023-05-14T13:04:36;16.75;;;10.68;;
74851;SDS011;63400;50.650;6.832;2023-05-14T13:07:02;14.85;;;8.50;;
74851;SDS011;63400;50.650;6.832;2023-05-14T13:09:27;16.75;;;7.72;;
74851;SDS011;63400;50.650;6.832;2023-05-14T13:11:53;20.42;;;9.85;;
74851;SDS011;63400;50.650;6.832;2023-05-14T13:14:18;19.70;;;10.65;;
74851;SDS011;63400;50.650;6.832;2023-05-14T13:16:44;23.08;;;12.52;;
74851;SDS011;63400;50.650;6.832;2023-05-14T13:19:09;22.42;;;10.38;;
74851;SDS011;63400;50.650;6.832;2023-05-14T13:21:34;19.83;;;10.35;;
74851;SDS011;63400;50.650;6.832;2023-05-14T13:24:00;20.85;;;9.98;;
74851;SDS011;63400;50.650;6.832;2023-05-14T13:26:25;18.30;;;9.07;;
74851;SDS011;63400;50.650;6.832;2023-05-14T13:28:52;18.45;;;9.45;;
74851;SDS011;63400;50.650;6.832;2023-05-14T13:31:18;19.63;;;8.75;;
74851;SDS011;63400;50.650;6.832;2023-05-14T13:33:43;21.08;;;8.63;;
74851;SDS011;63400;50.650;6.832;2023-05-14T13:36:09;19.77;;;8.40;;
74851;SDS011;63400;50.650;6.832;2023-05-14T13:38:37;20.13;;;8.15;;
74851;SDS011;63400;50.650;6.832;2023-05-14T13:41:02;20.63;;;10.30;;
74851;SDS011;63400;50.650;6.832;2023-05-14T13:43:32;21.58;;;9.63;;
74851;SDS011;63400;50.650;6.832;2023-05-14T13:45:59;24.38;;;11.68;;
74851;SDS011;63400;50.650;6.832;2023-05-14T13:48:25;22.38;;;9.32;;
74851;SDS011;63400;50.650;6.832;2023-05-14T13:50:51;22.05;;;8.90;;
74851;SDS011;63400;50.650;6.832;2023-05-14T13:53:18;23.25;;;9.25;;
74851;SDS011;63400;50.650;6.832;2023-05-14T13:55:43;19.52;;;8.05;;
74851;SDS011;63400;50.650;6.832;2023-05-14T13:58:09;22.70;;;8.88;;
74851;SDS011;63400;50.650;6.832;2023-05-14T14:00:35;18.88;;;8.55;;
74851;SDS011;63400;50.650;6.832;2023-05-14T14:03:00;22.45;;;8.93;;
74851;SDS011;63400;50.650;6.832;2023-05-14T14:05:26;21.95;;;8.48;;
74851;SDS011;63400;50.650;6.832;2023-05-14T14:07:55;22.45;;;9.20;;
74851;SDS011;63400;50.650;6.832;2023-05-14T14:10:20;24.77;;;9.27;;
74851;SDS011;63400;50.650;6.832;2023-05-14T14:12:46;24.88;;;8.73;;
74851;SDS011;63400;50.650;6.832;2023-05-14T14:15:11;26.25;;;10.45;;
74851;SDS011;63400;50.650;6.832;2023-05-14T14:17:37;23.70;;;9.55;;
74851;SDS011;63400;50.650;6.832;2023-05-14T14:20:05;22.42;;;8.63;;
74851;SDS011;63400;50.650;6.832;2023-05-14T14:22:35;20.45;;;8.48;;
74851;SDS011;63400;50.650;6.832;2023-05-14T14:25:05;24.73;;;9.75;;
74851;SDS011;63400;50.650;6.832;2023-05-14T14:27:32;22.95;;;9.13;;
74851;SDS011;63400;50.650;6.832;2023-05-14T14:30:02;22.10;;;9.57;;
74851;SDS011;63400;50.650;6.832;2023-05-14T14:32:29;23.65;;;9.23;;
74851;SDS011;63400;50.650;6.832;2023-05-14T14:34:55;24.55;;;9.63;;
74851;SDS011;63400;50.650;6.832;2023-05-14T14:37:20;22.20;;;9.40;;
74851;SDS011;63400;50.650;6.832;2023-05-14T14:39:45;22.13;;;8.98;;
74851;SDS011;63400;50.650;6.832;2023-05-14T14:42:11;22.73;;;9.70;;
74851;SDS011;63400;50.650;6.832;2023-05-14T14:44:37;25.20;;;9.88;;
74851;SDS011;63400;50.650;6.832;2023-05-14T14:47:05;25.00;;;9.73;;
74851;SDS011;63400;50.650;6.832;2023-05-14T14:49:30;24.63;;;9.13;;
74851;SDS011;63400;50.650;6.832;2023-05-14T14:51:56;22.20;;;9.57;;
74851;SDS011;63400;50.650;6.832;2023-05-14T14:54:22;27.40;;;10.13;;
74851;SDS011;63400;50.650;6.832;2023-05-14T14:56:47;23.42;;;9.48;;
74851;SDS011;63400;50.650;6.832;2023-05-14T14:59:16;24.30;;;9.30;;
74851;SDS011;63400;50.650;6.832;2023-05-14T15:01:41;25.58;;;10.00;;
74851;SDS011;63400;50.650;6.832;2023-05-14T15:04:06;22.05;;;9.45;;
74851;SDS011;63400;50.650;6.832;2023-05-14T15:06:32;23.35;;;9.85;;
74851;SDS011;63400;50.650;6.832;2023-05-14T15:08:57;22.15;;;9.13;;
74851;SDS011;63400;50.650;6.832;2023-05-14T15:11:23;25.08;;;9.45;;
74851;SDS011;63400;50.650;6.832;2023-05-14T15:13:48;22.65;;;9.38;;
74851;SDS011;63400;50.650;6.832;2023-05-14T15:16:14;19.80;;;8.43;;
74851;SDS011;63400;50.650;6.832;2023-05-14T15:18:41;24.92;;;9.23;;
74851;SDS011;63400;50.650;6.832;2023-05-14T15:21:06;27.20;;;9.43;;
74851;SDS011;63400;50.650;6.832;2023-05-14T15:23:31;23.50;;;9.45;;
74851;SDS011;63400;50.650;6.832;2023-05-14T15:25:57;27.77;;;10.13;;
74851;SDS011;63400;50.650;6.832;2023-05-14T15:28:22;25.45;;;9.27;;
74851;SDS011;63400;50.650;6.832;2023-05-14T15:30:47;23.80;;;8.93;;
74851;SDS011;63400;50.650;6.832;2023-05-14T15:33:13;25.45;;;8.93;;
74851;SDS011;63400;50.650;6.832;2023-05-14T15:35:42;26.75;;;9.13;;
74851;SDS011;63400;50.650;6.832;2023-05-14T15:38:08;27.70;;;9.50;;
74851;SDS011;63400;50.650;6.832;2023-05-14T15:43:00;29.23;;;9.13;;
74851;SDS011;63400;50.650;6.832;2023-05-14T15:45:25;29.05;;;9.52;;
74851;SDS011;63400;50.650;6.832;2023-05-14T15:47:52;28.38;;;9.02;;
74851;SDS011;63400;50.650;6.832;2023-05-14T15:50:17;24.40;;;8.40;;
74851;SDS011;63400;50.650;6.832;2023-05-14T15:52:43;22.98;;;8.15;;
74851;SDS011;63400;50.650;6.832;2023-05-14T15:55:09;24.95;;;8.65;;
74851;SDS011;63400;50.650;6.832;2023-05-14T15:57:34;26.58;;;9.20;;
74851;SDS011;63400;50.650;6.832;2023-05-14T15:59:59;21.65;;;8.20;;
74851;SDS011;63400;50.650;6.832;2023-05-14T16:02:25;21.90;;;7.63;;
74851;SDS011;63400;50.650;6.832;2023-05-14T16:04:54;23.55;;;8.05;;
74851;SDS011;63400;50.650;6.832;2023-05-14T16:07:19;23.17;;;8.13;;
74851;SDS011;63400;50.650;6.832;2023-05-14T16:09:45;24.50;;;8.57;;
74851;SDS011;63400;50.650;6.832;2023-05-14T16:12:10;21.80;;;8.10;;
74851;SDS011;63400;50.650;6.832;2023-05-14T16:14:36;18.38;;;7.45;;
74851;SDS011;63400;50.650;6.832;2023-05-14T16:17:01;18.65;;;7.50;;
74851;SDS011;63400;50.650;6.832;2023-05-14T16:19:27;19.80;;;7.10;;
74851;SDS011;63400;50.650;6.832;2023-05-14T16:21:52;25.75;;;8.10;;
74851;SDS011;63400;50.650;6.832;2023-05-14T16:24:18;22.40;;;7.35;;
74851;SDS011;63400;50.650;6.832;2023-05-14T16:26:44;19.15;;;7.72;;
74851;SDS011;63400;50.650;6.832;2023-05-14T16:29:09;19.33;;;6.95;;
74851;SDS011;63400;50.650;6.832;2023-05-14T16:31:35;21.25;;;7.88;;
74851;SDS011;63400;50.650;6.832;2023-05-14T16:34:02;19.90;;;7.85;;
74851;SDS011;63400;50.650;6.832;2023-05-14T16:36:28;18.40;;;6.50;;
74851;SDS011;63400;50.650;6.832;2023-05-14T16:38:53;19.02;;;7.85;;
74851;SDS011;63400;50.650;6.832;2023-05-14T16:41:18;18.48;;;7.15;;
74851;SDS011;63400;50.650;6.832;2023-05-14T16:43:45;17.95;;;6.97;;
74851;SDS011;63400;50.650;6.832;2023-05-14T16:46:11;19.13;;;6.97;;
74851;SDS011;63400;50.650;6.832;2023-05-14T16:48:36;16.38;;;6.65;;
74851;SDS011;63400;50.650;6.832;2023-05-14T16:51:02;18.38;;;7.47;;
74851;SDS011;63400;50.650;6.832;2023-05-14T16:53:27;19.83;;;7.90;;
74851;SDS011;63400;50.650;6.832;2023-05-14T16:55:53;18.30;;;7.63;;
74851;SDS011;63400;50.650;6.832;2023-05-14T16:58:18;15.93;;;6.10;;
74851;SDS011;63400;50.650;6.832;2023-05-14T17:00:44;21.13;;;7.05;;
74851;SDS011;63400;50.650;6.832;2023-05-14T17:03:09;19.02;;;6.97;;
74851;SDS011;63400;50.650;6.832;2023-05-14T17:05:34;17.65;;;6.85;;
74851;SDS011;63400;50.650;6.832;2023-05-14T17:08:00;18.48;;;7.38;;
74851;SDS011;63400;50.650;6.832;2023-05-14T17:10:26;19.20;;;7.50;;
74851;SDS011;63400;50.650;6.832;2023-05-14T17:12:51;21.23;;;7.90;;
74851;SDS011;63400;50.650;6.832;2023-05-14T17:15:17;21.20;;;6.50;;
74851;SDS011;63400;50.650;6.832;2023-05-14T17:17:42;18.42;;;7.28;;
74851;SDS011;63400;50.650;6.832;2023-05-14T17:20:08;16.80;;;6.60;;
74851;SDS011;63400;50.650;6.832;2023-05-14T17:22:34;16.20;;;7.35;;
74851;SDS011;63400;50.650;6.832;2023-05-14T17:24:59;17.92;;;7.22;;
74851;SDS011;63400;50.650;6.832;2023-05-14T17:27:24;18.23;;;7.15;;
74851;SDS011;63400;50.650;6.832;2023-05-14T17:29:50;17.83;;;7.38;;
74851;SDS011;63400;50.650;6.832;2023-05-14T17:32:16;18.83;;;6.90;;
74851;SDS011;63400;50.650;6.832;2023-05-14T17:34:42;15.75;;;6.93;;
74851;SDS011;63400;50.650;6.832;2023-05-14T17:37:07;15.57;;;6.60;;
74851;SDS011;63400;50.650;6.832;2023-05-14T17:39:33;16.80;;;6.28;;
74851;SDS011;63400;50.650;6.832;2023-05-14T17:41:58;19.70;;;7.60;;
74851;SDS011;63400;50.650;6.832;2023-05-14T17:44:24;18.40;;;6.38;;
74851;SDS011;63400;50.650;6.832;2023-05-14T17:46:49;15.90;;;6.25;;
74851;SDS011;63400;50.650;6.832;2023-05-14T17:49:15;14.73;;;5.88;;
74851;SDS011;63400;50.650;6.832;2023-05-14T17:51:40;16.42;;;6.30;;
74851;SDS011;63400;50.650;6.832;2023-05-14T17:54:05;16.45;;;6.03;;
74851;SDS011;63400;50.650;6.832;2023-05-14T17:56:31;18.92;;;6.63;;
74851;SDS011;63400;50.650;6.832;2023-05-14T17:58:56;17.48;;;6.03;;
74851;SDS011;63400;50.650;6.832;2023-05-14T18:01:21;17.35;;;6.70;;
74851;SDS011;63400;50.650;6.832;2023-05-14T18:03:47;13.20;;;5.68;;
74851;SDS011;63400;50.650;6.832;2023-05-14T18:06:12;18.27;;;6.40;;
74851;SDS011;63400;50.650;6.832;2023-05-14T18:08:38;19.75;;;6.65;;
74851;SDS011;63400;50.650;6.832;2023-05-14T18:11:04;15.50;;;5.47;;
74851;SDS011;63400;50.650;6.832;2023-05-14T18:13:30;16.98;;;6.35;;
74851;SDS011;63400;50.650;6.832;2023-05-14T18:15:55;15.80;;;6.10;;
74851;SDS011;63400;50.650;6.832;2023-05-14T18:18:21;17.10;;;5.93;;
74851;SDS011;63400;50.650;6.832;2023-05-14T18:20:48;18.48;;;6.70;;
74851;SDS011;63400;50.650;6.832;2023-05-14T18:23:14;19.77;;;6.75;;
74851;SDS011;63400;50.650;6.832;2023-05-14T18:25:39;17.45;;;6.05;;
74851;SDS011;63400;50.650;6.832;2023-05-14T18:28:05;16.00;;;5.68;;
74851;SDS011;63400;50.650;6.832;2023-05-14T18:30:30;18.30;;;6.70;;
74851;SDS011;63400;50.650;6.832;2023-05-14T18:32:56;20.33;;;6.53;;
74851;SDS011;63400;50.650;6.832;2023-05-14T18:35:22;18.38;;;6.45;;
74851;SDS011;63400;50.650;6.832;2023-05-14T18:37:48;18.38;;;7.13;;
74851;SDS011;63400;50.650;6.832;2023-05-14T18:40:13;17.60;;;6.22;;
74851;SDS011;63400;50.650;6.832;2023-05-14T18:42:39;13.50;;;5.18;;
74851;SDS011;63400;50.650;6.832;2023-05-14T18:45:05;16.63;;;6.10;;
74851;SDS011;63400;50.650;6.832;2023-05-14T18:47:31;15.90;;;6.20;;
74851;SDS011;63400;50.650;6.832;2023-05-14T18:49:57;18.42;;;6.57;;
74851;SDS011;63400;50.650;6.832;2023-05-14T18:52:24;14.75;;;5.72;;
74851;SDS011;63400;50.650;6.832;2023-05-14T18:54:50;16.98;;;5.78;;
74851;SDS011;63400;50.650;6.832;2023-05-14T18:57:16;23.50;;;7.05;;
74851;SDS011;63400;50.650;6.832;2023-05-14T18:59:42;15.32;;;5.82;;
74851;SDS011;63400;50.650;6.832;2023-05-14T19:02:10;15.60;;;6.05;;
74851;SDS011;63400;50.650;6.832;2023-05-14T19:04:35;16.95;;;6.18;;
74851;SDS011;63400;50.650;6.832;2023-05-14T19:07:01;19.08;;;6.93;;
74851;SDS011;63400;50.650;6.832;2023-05-14T19:09:27;17.70;;;6.28;;
74851;SDS011;63400;50.650;6.832;2023-05-14T19:11:53;18.77;;;6.35;;
74851;SDS011;63400;50.650;6.832;2023-05-14T19:14:19;18.98;;;6.90;;
74851;SDS011;63400;50.650;6.832;2023-05-14T19:16:47;14.68;;;5.93;;
74851;SDS011;63400;50.650;6.832;2023-05-14T19:19:13;16.90;;;5.85;;
74851;SDS011;63400;50.650;6.832;2023-05-14T19:21:40;15.48;;;5.53;;
74851;SDS011;63400;50.650;6.832;2023-05-14T19:24:07;15.68;;;5.70;;
74851;SDS011;63400;50.650;6.832;2023-05-14T19:26:37;21.63;;;6.60;;
74851;SDS011;63400;50.650;6.832;2023-05-14T19:29:03;12.65;;;5.18;;
74851;SDS011;63400;50.650;6.832;2023-05-14T19:31:29;17.70;;;5.78;;
74851;SDS011;63400;50.650;6.832;2023-05-14T19:33:54;17.92;;;6.43;;
74851;SDS011;63400;50.650;6.832;2023-05-14T19:36:20;20.67;;;6.10;;
74851;SDS011;63400;50.650;6.832;2023-05-14T19:38:45;16.58;;;6.57;;
74851;SDS011;63400;50.650;6.832;2023-05-14T19:41:11;18.77;;;6.10;;
74851;SDS011;63400;50.650;6.832;2023-05-14T19:43:37;19.60;;;6.55;;
74851;SDS011;63400;50.650;6.832;2023-05-14T19:46:02;14.38;;;5.47;;
74851;SDS011;63400;50.650;6.832;2023-05-14T19:48:28;17.33;;;5.85;;
74851;SDS011;63400;50.650;6.832;2023-05-14T19:50:53;15.75;;;5.68;;
74851;SDS011;63400;50.650;6.832;2023-05-14T19:53:19;17.70;;;5.65;;
74851;SDS011;63400;50.650;6.832;2023-05-14T19:55:45;18.58;;;6.40;;
74851;SDS011;63400;50.650;6.832;2023-05-14T19:58:10;15.75;;;5.80;;
74851;SDS011;63400;50.650;6.832;2023-05-14T20:00:36;13.98;;;5.57;;
74851;SDS011;63400;50.650;6.832;2023-05-14T20:03:02;15.43;;;5.30;;
74851;SDS011;63400;50.650;6.832;2023-05-14T20:05:28;17.85;;;6.13;;
74851;SDS011;63400;50.650;6.832;2023-05-14T20:07:54;17.90;;;5.97;;
74851;SDS011;63400;50.650;6.832;2023-05-14T20:10:20;18.95;;;6.20;;
74851;SDS011;63400;50.650;6.832;2023-05-14T20:12:47;15.95;;;5.85;;
74851;SDS011;63400;50.650;6.832;2023-05-14T20:15:12;16.83;;;4.97;;
74851;SDS011;63400;50.650;6.832;2023-05-14T20:17:38;17.23;;;5.93;;
74851;SDS011;63400;50.650;6.832;2023-05-14T20:20:04;14.55;;;5.22;;
74851;SDS011;63400;50.650;6.832;2023-05-14T20:22:34;18.20;;;6.40;;
74851;SDS011;63400;50.650;6.832;2023-05-14T20:25:01;18.50;;;5.82;;
74851;SDS011;63400;50.650;6.832;2023-05-14T20:27:33;17.38;;;6.00;;
74851;SDS011;63400;50.650;6.832;2023-05-14T20:29:59;17.63;;;6.10;;
74851;SDS011;63400;50.650;6.832;2023-05-14T20:32:24;17.48;;;6.22;;
74851;SDS011;63400;50.650;6.832;2023-05-14T20:34:50;16.25;;;6.10;;
74851;SDS011;63400;50.650;6.832;2023-05-14T20:37:16;18.98;;;6.88;;
74851;SDS011;63400;50.650;6.832;2023-05-14T20:39:45;17.90;;;5.97;;
74851;SDS011;63400;50.650;6.832;2023-05-14T20:42:11;16.90;;;6.63;;
74851;SDS011;63400;50.650;6.832;2023-05-14T20:44:37;17.83;;;6.15;;
74851;SDS011;63400;50.650;6.832;2023-05-14T20:47:02;13.63;;;5.50;;
74851;SDS011;63400;50.650;6.832;2023-05-14T20:49:28;18.10;;;6.30;;
74851;SDS011;63400;50.650;6.832;2023-05-14T20:51:54;16.40;;;6.20;;
74851;SDS011;63400;50.650;6.832;2023-05-14T20:54:20;16.67;;;6.15;;
74851;SDS011;63400;50.650;6.832;2023-05-14T20:56:48;16.45;;;5.25;;
74851;SDS011;63400;50.650;6.832;2023-05-14T20:59:13;15.27;;;5.35;;
74851;SDS011;63400;50.650;6.832;2023-05-14T21:01:40;17.63;;;5.72;;
74851;SDS011;63400;50.650;6.832;2023-05-14T21:04:06;14.05;;;4.93;;
74851;SDS011;63400;50.650;6.832;2023-05-14T21:06:32;17.67;;;5.28;;
74851;SDS011;63400;50.650;6.832;2023-05-14T21:08:57;16.73;;;4.72;;
74851;SDS011;63400;50.650;6.832;2023-05-14T21:11:22;13.80;;;4.45;;
74851;SDS011;63400;50.650;6.832;2023-05-14T21:13:48;16.55;;;4.88;;
74851;SDS011;63400;50.650;6.832;2023-05-14T21:16:13;15.82;;;4.78;;
74851;SDS011;63400;50.650;6.832;2023-05-14T21:18:39;18.60;;;5.18;;
74851;SDS011;63400;50.650;6.832;2023-05-14T21:21:04;16.42;;;4.85;;
74851;SDS011;63400;50.650;6.832;2023-05-14T21:23:30;14.93;;;4.50;;
74851;SDS011;63400;50.650;6.832;2023-05-14T21:25:55;14.80;;;4.28;;
74851;SDS011;63400;50.650;6.832;2023-05-14T21:28:22;16.42;;;4.97;;
74851;SDS011;63400;50.650;6.832;2023-05-14T21:30:48;16.75;;;4.75;;
74851;SDS011;63400;50.650;6.832;2023-05-14T21:35:40;15.93;;;4.80;;
74851;SDS011;63400;50.650;6.832;2023-05-14T21:38:06;14.43;;;5.18;;
74851;SDS011;63400;50.650;6.832;2023-05-14T21:40:33;16.35;;;4.70;;
74851;SDS011;63400;50.650;6.832;2023-05-14T21:42:59;14.60;;;4.60;;
74851;SDS011;63400;50.650;6.832;2023-05-14T21:45:25;17.60;;;5.22;;
74851;SDS011;63400;50.650;6.832;2023-05-14T21:47:50;15.35;;;4.35;;
74851;SDS011;63400;50.650;6.832;2023-05-14T21:50:16;18.30;;;5.18;;
74851;SDS011;63400;50.650;6.832;2023-05-14T21:52:42;14.98;;;4.60;;
74851;SDS011;63400;50.650;6.832;2023-05-14T21:55:08;15.10;;;4.75;;
74851;SDS011;63400;50.650;6.832;2023-05-14T21:57:34;14.48;;;4.57;;
74851;SDS011;63400;50.650;6.832;2023-05-14T21:59:59;16.05;;;5.05;;
74851;SDS011;63400;50.650;6.832;2023-05-14T22:02:25;15.35;;;4.90;;
74851;SDS011;63400;50.650;6.832;2023-05-14T22:04:50;15.30;;;4.72;;
74851;SDS011;63400;50.650;6.832;2023-05-14T22:07:16;15.43;;;5.53;;
74851;SDS011;63400;50.650;6.832;2023-05-14T22:09:41;17.10;;;4.90;;
74851;SDS011;63400;50.650;6.832;2023-05-14T22:12:07;18.08;;;5.88;;
74851;SDS011;63400;50.650;6.832;2023-05-14T22:14:32;16.88;;;5.60;;
74851;SDS011;63400;50.650;6.832;2023-05-14T22:16:58;16.02;;;4.95;;
74851;SDS011;63400;50.650;6.832;2023-05-14T22:19:23;14.02;;;4.57;;
74851;SDS011;63400;50.650;6.832;2023-05-14T22:21:50;23.30;;;6.40;;
74851;SDS011;63400;50.650;6.832;2023-05-14T22:24:16;17.05;;;5.53;;
74851;SDS011;63400;50.650;6.832;2023-05-14T22:26:41;19.48;;;5.28;;
74851;SDS011;63400;50.650;6.832;2023-05-14T22:29:06;15.27;;;4.93;;
74851;SDS011;63400;50.650;6.832;2023-05-14T22:31:32;16.98;;;5.30;;
74851;SDS011;63400;50.650;6.832;2023-05-14T22:33:57;17.83;;;4.97;;
74851;SDS011;63400;50.650;6.832;2023-05-14T22:36:23;19.60;;;5.57;;
74851;SDS011;63400;50.650;6.832;2023-05-14T22:38:48;18.52;;;5.10;;
74851;SDS011;63400;50.650;6.832;2023-05-14T22:41:13;16.38;;;4.95;;
74851;SDS011;63400;50.650;6.832;2023-05-14T22:43:41;15.52;;;4.78;;
74851;SDS011;63400;50.650;6.832;2023-05-14T22:46:06;19.10;;;5.68;;
74851;SDS011;63400;50.650;6.832;2023-05-14T22:48:32;14.88;;;5.00;;
74851;SDS011;63400;50.650;6.832;2023-05-14T22:50:57;16.02;;;5.00;;
74851;SDS011;63400;50.650;6.832;2023-05-14T22:53:22;16.80;;;5.15;;
74851;SDS011;63400;50.650;6.832;2023-05-14T22:55:48;16.90;;;4.90;;
74851;SDS011;63400;50.650;6.832;2023-05-14T22:58:13;19.35;;;5.60;;
74851;SDS011;63400;50.650;6.832;2023-05-14T23:00:39;17.50;;;4.88;;
74851;SDS011;63400;50.650;6.832;2023-05-14T23:03:04;17.45;;;5.22;;
74851;SDS011;63400;50.650;6.832;2023-05-14T23:05:30;19.83;;;5.70;;
74851;SDS011;63400;50.650;6.832;2023-05-14T23:07:55;18.27;;;5.63;;
74851;SDS011;63400;50.650;6.832;2023-05-14T23:10:20;18.52;;;5.38;;
74851;SDS011;63400;50.650;6.832;2023-05-14T23:12:46;19.55;;;5.28;;
74851;SDS011;63400;50.650;6.832;2023-05-14T23:15:11;15.50;;;5.47;;
74851;SDS011;63400;50.650;6.832;2023-05-14T23:17:37;17.65;;;5.50;;
74851;SDS011;63400;50.650;6.832;2023-05-14T23:20:02;25.33;;;6.85;;
74851;SDS011;63400;50.650;6.832;2023-05-14T23:22:29;17.20;;;5.00;;
74851;SDS011;63400;50.650;6.832;2023-05-14T23:24:55;16.55;;;5.88;;
74851;SDS011;63400;50.650;6.832;2023-05-14T23:27:20;15.15;;;5.55;;
74851;SDS011;63400;50.650;6.832;2023-05-14T23:29:46;18.00;;;5.53;;
74851;SDS011;63400;50.650;6.832;2023-05-14T23:32:11;16.67;;;5.47;;
74851;SDS011;63400;50.650;6.832;2023-05-14T23:34:37;20.45;;;6.22;;
74851;SDS011;63400;50.650;6.832;2023-05-14T23:37:02;21.25;;;6.88;;
74851;SDS011;63400;50.650;6.832;2023-05-14T23:39:27;16.10;;;5.47;;
74851;SDS011;63400;50.650;6.832;2023-05-14T23:41:56;20.25;;;7.05;;